createdAt,value
2019-02-08T00:02:30.241Z,3.27
2019-02-08T00:05:00.996Z,3.07
2019-02-08T00:07:31.795Z,3.00
2019-02-08T00:10:02.506Z,2.80
2019-02-08T00:12:33.227Z,3.13
2019-02-08T00:15:04.616Z,3.60
2019-02-08T00:17:36.927Z,3.47
2019-02-08T00:20:08.174Z,2.43
2019-02-08T00:22:38.827Z,3.07
2019-02-08T00:25:13.244Z,2.67
2019-02-08T00:27:44.239Z,2.80
2019-02-08T00:30:19.551Z,2.53
2019-02-08T00:32:50.493Z,2.77
2019-02-08T00:35:23.049Z,2.10
2019-02-08T00:37:54.118Z,3.03
2019-02-08T00:40:27.847Z,3.10
2019-02-08T00:42:59.694Z,2.40
2019-02-08T00:45:30.422Z,2.90
2019-02-08T00:48:01.229Z,2.17
2019-02-08T00:50:32.095Z,1.80
2019-02-08T00:53:02.841Z,2.27
2019-02-08T00:55:34.531Z,2.60
2019-02-08T00:58:05.654Z,2.30
2019-02-08T01:00:36.443Z,2.63
2019-02-08T01:03:07.513Z,3.00
2019-02-08T01:05:38.286Z,2.60
2019-02-08T01:08:08.947Z,2.50
2019-02-08T01:10:40.065Z,2.93
2019-02-08T01:13:12.702Z,3.03
2019-02-08T01:15:43.495Z,2.93
2019-02-08T01:18:14.318Z,3.00
2019-02-08T01:20:45.051Z,3.20
2019-02-08T01:23:15.869Z,3.03
2019-02-08T01:25:46.809Z,2.40
2019-02-08T01:28:17.529Z,3.20
2019-02-08T01:30:48.291Z,3.40
2019-02-08T01:33:19.027Z,2.87
2019-02-08T01:35:49.839Z,3.30
2019-02-08T01:38:20.695Z,3.20
2019-02-08T01:40:51.406Z,2.73
2019-02-08T01:43:22.237Z,3.20
2019-02-08T01:45:53.038Z,3.27
2019-02-08T01:48:23.773Z,3.43
2019-02-08T01:50:54.551Z,4.07
2019-02-08T02:09:10.323Z,3.50
2019-02-08T02:11:41.374Z,3.23
2019-02-08T02:14:14.012Z,3.00
2019-02-08T02:16:45.230Z,3.97
2019-02-08T02:19:16.186Z,3.87
2019-02-08T02:21:47.047Z,4.13
2019-02-08T02:24:18.178Z,3.57
2019-02-08T02:26:49.379Z,3.47
2019-02-08T02:29:20.343Z,3.20
2019-02-08T02:31:51.091Z,3.37
2019-02-08T02:34:21.835Z,3.40
2019-02-08T02:36:52.566Z,3.67
2019-02-08T02:39:23.366Z,3.70
2019-02-08T02:41:54.215Z,4.20
2019-02-08T02:44:24.990Z,3.50
2019-02-08T02:46:55.953Z,3.80
2019-02-08T02:49:26.705Z,3.67
2019-02-08T02:51:57.562Z,3.63
2019-02-08T02:54:28.255Z,3.93
2019-02-08T02:56:59.038Z,4.03
2019-02-08T02:59:29.785Z,4.00
2019-02-08T03:02:00.615Z,4.30
2019-02-08T03:04:31.326Z,4.13
2019-02-08T03:07:02.091Z,4.93
2019-02-08T03:09:32.912Z,4.60
2019-02-08T03:12:03.590Z,4.60
2019-02-08T03:14:34.375Z,4.87
2019-02-08T03:17:05.225Z,5.43
2019-02-08T03:19:35.906Z,4.70
2019-02-08T03:22:06.679Z,5.13
2019-02-08T03:24:37.410Z,5.53
2019-02-08T03:27:09.771Z,5.50
2019-02-08T03:29:40.539Z,6.17
2019-02-08T03:32:11.342Z,3.80
2019-02-08T03:34:42.086Z,5.27
2019-02-08T03:37:12.771Z,6.50
2019-02-08T03:39:43.522Z,6.60
2019-02-08T03:42:14.296Z,7.07
2019-02-08T03:44:45.021Z,5.90
2019-02-08T03:47:16.949Z,7.00
2019-02-08T03:49:47.687Z,7.73
2019-02-08T03:52:18.564Z,8.90
2019-02-08T03:54:49.644Z,8.77
2019-02-08T03:57:20.410Z,7.97
2019-02-08T03:59:51.635Z,6.97
2019-02-08T04:02:22.523Z,7.50
2019-02-08T04:04:53.270Z,9.37
2019-02-08T04:07:23.930Z,9.80
2019-02-08T04:09:54.718Z,8.90
2019-02-08T04:12:25.552Z,8.37
2019-02-08T04:14:56.403Z,9.33
2019-02-08T04:17:27.141Z,10.10
2019-02-08T04:19:57.959Z,8.93
2019-02-08T04:22:28.661Z,8.10
2019-02-08T04:24:59.396Z,9.00
2019-02-08T04:27:30.055Z,9.23
2019-02-08T04:30:00.895Z,9.53
2019-02-08T04:32:31.824Z,10.03
2019-02-08T04:35:02.572Z,8.50
2019-02-08T04:37:33.315Z,9.47
2019-02-08T04:40:04.760Z,8.20
2019-02-08T04:42:35.563Z,9.40
2019-02-08T04:45:06.957Z,9.47
2019-02-08T04:47:37.734Z,7.67
2019-02-08T04:50:09.870Z,7.87
2019-02-08T04:52:40.700Z,8.20
2019-02-08T04:55:11.696Z,8.83
2019-02-08T04:57:42.410Z,8.60
2019-02-08T05:00:19.711Z,8.90
2019-02-08T05:02:50.421Z,9.43
2019-02-08T05:05:21.354Z,8.97
2019-02-08T05:07:52.829Z,8.80
2019-02-08T05:10:25.748Z,8.77
2019-02-08T05:12:56.638Z,8.50
2019-02-08T05:15:27.314Z,8.87
2019-02-08T05:17:58.100Z,8.90
2019-02-08T05:20:29.932Z,9.03
2019-02-08T05:23:00.695Z,8.63
2019-02-08T05:25:31.600Z,8.07
2019-02-08T05:28:02.367Z,7.30
2019-02-08T05:30:34.826Z,8.17
2019-02-08T05:33:06.232Z,6.93
2019-02-08T05:35:37.148Z,7.93
2019-02-08T05:38:07.868Z,7.97
2019-02-08T05:40:38.565Z,7.97
2019-02-08T05:43:09.278Z,7.27
2019-02-08T05:45:39.891Z,7.67
2019-02-08T05:48:10.622Z,7.97
2019-02-08T05:50:41.372Z,9.07
2019-02-08T05:53:12.103Z,8.97
2019-02-08T05:55:42.758Z,8.60
2019-02-08T05:58:13.397Z,6.17
2019-02-08T06:00:50.981Z,7.53
2019-02-08T06:03:21.935Z,7.37
2019-02-08T06:05:52.860Z,7.63
2019-02-08T06:08:23.594Z,8.00
2019-02-08T06:10:54.318Z,7.70
2019-02-08T06:13:26.116Z,7.60
2019-02-08T06:15:56.893Z,7.47
2019-02-08T06:18:29.370Z,6.97
2019-02-08T06:21:00.086Z,6.70
2019-02-08T06:23:30.894Z,7.83
2019-02-08T06:26:12.957Z,9.30
2019-02-08T06:28:43.690Z,7.23
2019-02-08T06:31:14.499Z,7.47
2019-02-08T06:33:45.324Z,8.73
2019-02-08T06:36:16.173Z,7.73
2019-02-08T06:38:46.912Z,8.27
2019-02-08T06:41:17.696Z,7.40
2019-02-08T06:43:48.555Z,7.93
2019-02-08T06:46:19.270Z,8.27
2019-02-08T06:48:50.030Z,8.13
2019-02-08T06:51:20.774Z,8.70
2019-02-08T06:53:51.537Z,8.67
2019-02-08T06:56:56.439Z,9.13
2019-02-08T06:59:31.730Z,8.20
2019-02-08T07:02:24.083Z,8.50
2019-02-08T07:05:13.790Z,9.57
2019-02-08T07:08:12.193Z,9.07
2019-02-08T07:11:00.574Z,9.37
2019-02-08T07:13:54.782Z,9.67
2019-02-08T07:16:43.050Z,6.67
2019-02-08T07:19:20.554Z,7.90
2019-02-08T07:22:16.077Z,9.90
2019-02-08T07:24:57.616Z,8.83
2019-02-08T07:27:53.357Z,7.10
2019-02-08T07:30:49.635Z,10.23
2019-02-08T07:33:40.651Z,11.47
2019-02-08T07:36:43.356Z,11.03
2019-02-08T07:39:36.410Z,9.67
2019-02-08T07:42:33.947Z,10.53
2019-02-08T07:45:14.049Z,9.27
2019-02-08T07:47:53.477Z,10.60
2019-02-08T07:50:36.710Z,10.87
2019-02-08T07:53:17.990Z,11.37
2019-02-08T07:55:56.161Z,10.93
2019-02-08T07:58:57.655Z,12.20
2019-02-08T08:01:46.102Z,6.17
2019-02-08T08:04:34.482Z,11.47
2019-02-08T08:07:26.022Z,10.30
2019-02-08T08:10:18.470Z,12.00
2019-02-08T08:13:07.797Z,12.63
2019-02-08T08:16:10.178Z,10.23
2019-02-08T08:18:58.654Z,11.47
2019-02-08T08:21:48.372Z,12.90
2019-02-08T08:24:53.453Z,10.23
2019-02-08T08:27:43.893Z,7.97
2019-02-08T08:30:27.167Z,12.30
2019-02-08T08:33:12.075Z,12.37
2019-02-08T08:36:27.067Z,9.87
2019-02-08T08:39:26.543Z,12.57
2019-02-08T08:42:23.351Z,12.37
2019-02-08T08:45:37.806Z,9.07
2019-02-08T08:48:39.206Z,11.07
2019-02-08T08:51:54.340Z,11.73
2019-02-08T08:55:12.766Z,10.60
2019-02-08T08:58:21.301Z,11.07
2019-02-08T09:01:32.780Z,8.13
2019-02-08T09:04:41.815Z,4.13
2019-02-08T09:08:03.700Z,11.80
2019-02-08T09:11:27.244Z,10.10
2019-02-08T09:14:24.585Z,9.53
2019-02-08T09:17:47.314Z,9.30
2019-02-08T09:21:02.010Z,10.27
2019-02-08T09:24:04.797Z,7.10
2019-02-08T09:27:08.142Z,11.17
2019-02-08T09:30:14.417Z,10.47
2019-02-08T09:33:29.333Z,10.13
2019-02-08T09:36:47.426Z,9.50
2019-02-08T09:39:55.742Z,9.77
2019-02-08T09:42:53.070Z,10.20
2019-02-08T09:46:04.823Z,8.87
2019-02-08T09:49:12.922Z,9.07
2019-02-08T09:52:22.239Z,9.40
2019-02-08T09:55:38.783Z,5.43
2019-02-08T09:58:23.898Z,7.83
2019-02-08T10:01:29.323Z,5.60
2019-02-08T10:04:40.537Z,7.63
2019-02-08T10:07:38.742Z,7.77
2019-02-08T10:10:46.234Z,7.93
2019-02-08T10:14:13.084Z,7.13
2019-02-08T10:17:11.177Z,6.90
2019-02-08T10:20:16.810Z,6.60
2019-02-08T10:23:18.112Z,7.47
2019-02-08T10:26:14.434Z,6.67
2019-02-08T10:29:37.338Z,5.07
2019-02-08T10:32:54.033Z,6.83
2019-02-08T10:36:17.994Z,6.50
2019-02-08T10:39:44.806Z,7.37
2019-02-08T10:42:56.323Z,7.27
2019-02-08T10:46:06.830Z,7.90
2019-02-08T10:49:14.471Z,7.67
2019-02-08T10:52:21.922Z,6.63
2019-02-08T10:55:41.537Z,6.10
2019-02-08T10:58:58.262Z,6.10
2019-02-08T11:02:21.765Z,6.17
2019-02-08T11:05:30.320Z,6.10
2019-02-08T11:08:52.494Z,4.30
2019-02-08T11:12:00.322Z,4.80
2019-02-08T11:15:27.253Z,7.00
2019-02-08T11:18:49.780Z,4.27
2019-02-08T11:21:20.544Z,4.90
2019-02-08T11:23:51.380Z,5.60
2019-02-08T11:26:24.467Z,6.07
2019-02-08T11:28:54.846Z,4.23
2019-02-08T11:31:25.565Z,3.40
2019-02-08T11:33:58.555Z,5.23
2019-02-08T11:36:29.353Z,5.03
2019-02-08T11:39:00.062Z,5.57
2019-02-08T11:41:30.718Z,5.37
2019-02-08T11:44:01.484Z,6.00
2019-02-08T11:46:32.213Z,5.23
2019-02-08T11:49:03.021Z,5.60
2019-02-08T11:51:33.738Z,5.30
2019-02-08T11:54:05.121Z,5.40
2019-02-08T11:56:35.887Z,6.13
2019-02-08T11:59:06.902Z,4.93
2019-02-08T12:01:43.049Z,6.13
2019-02-08T12:04:13.888Z,5.93
2019-02-08T12:06:44.614Z,4.90
2019-02-08T12:09:18.135Z,5.60
2019-02-08T12:11:48.973Z,5.27
2019-02-08T12:14:21.268Z,4.13
2019-02-08T12:16:51.915Z,5.57
2019-02-08T12:19:22.634Z,4.57
2019-02-08T12:21:53.370Z,4.77
2019-02-08T12:24:24.089Z,4.83
2019-02-08T12:26:54.798Z,4.47
2019-02-08T12:29:25.547Z,5.30
2019-02-08T12:31:56.209Z,4.33
2019-02-08T12:34:27.034Z,4.60
2019-02-08T12:36:57.738Z,4.37
2019-02-08T12:39:28.415Z,4.37
2019-02-08T12:41:59.121Z,4.33
2019-02-08T12:44:30.242Z,4.30
2019-02-08T12:47:00.889Z,4.50
2019-02-08T12:49:31.522Z,4.20
2019-02-08T12:52:02.204Z,4.27
2019-02-08T12:54:32.955Z,3.90
2019-02-08T12:57:04.669Z,3.97
2019-02-08T12:59:35.391Z,3.37
2019-02-08T13:02:06.058Z,4.10
2019-02-08T13:04:36.734Z,3.27
2019-02-08T13:07:07.462Z,3.73
2019-02-08T13:09:38.356Z,3.73
2019-02-08T13:12:10.050Z,2.70
2019-02-08T13:14:40.756Z,2.53
2019-02-08T13:17:11.527Z,3.37
2019-02-08T13:19:42.388Z,3.17
2019-02-08T13:22:13.063Z,3.63
2019-02-08T13:24:43.819Z,3.00
2019-02-08T13:27:14.706Z,2.70
2019-02-08T13:29:45.388Z,3.23
2019-02-08T13:32:16.129Z,2.53
2019-02-08T13:34:48.130Z,3.03
2019-02-08T13:37:18.921Z,2.33
2019-02-08T13:39:49.766Z,2.47
2019-02-08T13:42:20.532Z,2.07
2019-02-08T13:44:53.096Z,2.90
2019-02-08T13:47:23.853Z,2.93
2019-02-08T13:49:55.320Z,2.93
2019-02-08T13:52:26.155Z,2.43
2019-02-08T13:54:57.006Z,3.40
2019-02-08T13:57:27.690Z,3.20
2019-02-08T13:59:58.458Z,2.60
2019-02-08T14:02:29.137Z,3.00
2019-02-08T14:05:00.803Z,3.03
2019-02-08T14:07:31.545Z,2.37
2019-02-08T14:10:02.370Z,2.57
2019-02-08T14:12:33.679Z,2.67
2019-02-08T14:15:05.264Z,2.63
2019-02-08T14:17:35.963Z,2.90
2019-02-08T14:20:10.588Z,2.20
2019-02-08T14:22:42.198Z,3.80
2019-02-08T14:25:13.698Z,3.07
2019-02-08T14:27:44.643Z,2.20
2019-02-08T14:30:19.173Z,3.50
2019-02-08T14:32:49.993Z,2.40
2019-02-08T14:35:20.682Z,2.60
2019-02-08T14:37:51.641Z,3.47
2019-02-08T14:40:23.075Z,2.77
2019-02-08T14:42:53.999Z,3.47
2019-02-08T14:45:24.749Z,2.07
2019-02-08T14:47:55.510Z,1.73
2019-02-08T14:50:26.415Z,2.30
2019-02-08T14:52:58.182Z,2.47
2019-02-08T14:55:28.999Z,2.30
2019-02-08T14:58:01.336Z,2.33
2019-02-08T15:00:32.066Z,2.67
2019-02-08T15:03:02.799Z,2.67
2019-02-08T15:05:33.397Z,2.77
2019-02-08T15:08:04.114Z,2.50
2019-02-08T15:10:37.598Z,2.50
2019-02-08T15:13:08.414Z,2.63
2019-02-08T15:15:39.079Z,2.27
2019-02-08T15:18:10.111Z,2.43
2019-02-08T15:20:41.028Z,2.63
2019-02-08T15:23:11.908Z,2.17
2019-02-08T15:25:42.592Z,2.00
2019-02-08T15:28:15.940Z,2.33
2019-02-08T15:30:47.495Z,1.60
2019-02-08T15:33:19.989Z,2.50
2019-02-08T15:35:52.906Z,2.40
2019-02-08T15:38:23.674Z,2.40
2019-02-08T15:40:56.233Z,2.80
2019-02-08T15:43:27.732Z,2.57
2019-02-08T15:46:00.957Z,2.97
2019-02-08T15:48:31.821Z,2.27
2019-02-08T15:51:03.783Z,2.33
2019-02-08T15:53:34.446Z,2.30
2019-02-08T15:56:14.042Z,2.47
2019-02-08T15:58:44.789Z,2.20
2019-02-08T16:01:15.618Z,2.13
2019-02-08T16:03:46.430Z,4.10
2019-02-08T16:06:17.403Z,4.70
2019-02-08T16:08:48.095Z,2.70
2019-02-08T16:11:18.894Z,3.30
2019-02-08T16:13:51.256Z,2.67
2019-02-08T16:16:22.038Z,2.30
2019-02-08T16:18:52.754Z,2.30
2019-02-08T16:21:23.397Z,2.13
2019-02-08T16:23:54.193Z,2.33
2019-02-08T16:26:25.682Z,2.37
2019-02-08T16:28:56.438Z,1.60
2019-02-08T16:31:27.222Z,2.43
2019-02-08T16:33:58.039Z,2.40
2019-02-08T16:36:29.170Z,2.13
2019-02-08T16:39:01.337Z,2.47
2019-02-08T16:41:33.678Z,2.50
2019-02-08T16:44:05.176Z,2.40
2019-02-08T16:46:35.902Z,1.87
2019-02-08T16:49:06.603Z,2.07
2019-02-08T16:51:37.522Z,2.63
2019-02-08T16:54:09.471Z,2.40
2019-02-08T16:56:40.237Z,1.93
2019-02-08T16:59:11.046Z,2.10
2019-02-08T17:01:41.872Z,2.47
2019-02-08T17:04:14.652Z,2.57
2019-02-08T17:06:47.877Z,2.40
2019-02-08T17:09:18.553Z,2.43
2019-02-08T17:11:50.843Z,2.40
2019-02-08T17:14:21.518Z,3.30
2019-02-08T17:16:52.309Z,1.70
2019-02-08T17:19:23.094Z,1.03
2019-02-08T17:21:53.742Z,1.67
2019-02-08T17:24:24.470Z,2.63
2019-02-08T17:26:57.039Z,2.93
2019-02-08T17:29:27.719Z,2.37
2019-02-08T17:31:58.549Z,2.40
2019-02-08T17:34:29.542Z,2.07
2019-02-08T17:37:00.367Z,2.27
2019-02-08T17:39:31.094Z,2.23
2019-02-08T17:42:01.938Z,2.57
2019-02-08T17:44:47.425Z,2.60
2019-02-08T17:47:18.088Z,2.70
2019-02-08T17:49:48.952Z,2.77
2019-02-08T17:52:19.809Z,3.43
2019-02-08T17:54:50.596Z,2.67
2019-02-08T17:57:21.796Z,2.20
2019-02-08T17:59:53.182Z,2.17
2019-02-08T18:02:23.998Z,2.57
2019-02-08T18:04:54.699Z,3.10
2019-02-08T18:07:25.469Z,2.87
2019-02-08T18:09:56.142Z,2.83
2019-02-08T18:12:32.279Z,3.20
2019-02-08T18:14:59.324Z,2.50
2019-02-08T18:17:30.061Z,2.87
2019-02-08T18:20:01.033Z,2.80
2019-02-08T18:22:31.902Z,3.00
2019-02-08T18:25:02.792Z,2.13
2019-02-08T18:27:34.861Z,2.80
2019-02-08T18:30:06.843Z,2.33
2019-02-08T18:32:38.733Z,1.87
2019-02-08T18:35:09.475Z,2.60
2019-02-08T18:37:40.283Z,2.50
2019-02-08T18:40:13.316Z,1.77
2019-02-08T18:42:44.000Z,2.53
2019-02-08T18:45:17.755Z,1.83
2019-02-08T18:47:48.897Z,3.07
2019-02-08T18:50:32.237Z,2.90
2019-02-08T18:53:02.993Z,2.53
2019-02-08T18:55:33.777Z,3.23
2019-02-08T18:58:04.635Z,2.60
2019-02-08T19:00:39.907Z,3.10
2019-02-08T19:03:10.202Z,2.30
2019-02-08T19:05:41.966Z,3.13
2019-02-08T19:08:13.158Z,2.57
2019-02-08T19:10:43.861Z,2.20
2019-02-08T19:13:14.554Z,3.00
2019-02-08T19:15:46.146Z,3.47
2019-02-08T19:18:16.942Z,3.53
2019-02-08T19:20:48.167Z,2.80
2019-02-08T19:23:18.973Z,3.07
2019-02-08T19:25:49.804Z,2.77
2019-02-08T19:28:26.273Z,3.77
2019-02-08T19:30:54.113Z,2.80
2019-02-08T19:33:24.907Z,3.07
2019-02-08T19:35:55.662Z,2.60
2019-02-08T19:38:26.431Z,2.87
2019-02-08T19:40:57.207Z,3.33
2019-02-08T19:43:28.215Z,3.40
2019-02-08T19:45:59.105Z,3.17
2019-02-08T19:48:29.922Z,2.80
2019-02-08T19:51:00.663Z,2.57
2019-02-08T19:53:31.510Z,2.90
2019-02-08T19:56:02.498Z,3.37
2019-02-08T19:58:34.683Z,3.43
2019-02-08T20:01:06.429Z,3.23
2019-02-08T20:03:37.238Z,3.47
2019-02-08T20:06:08.083Z,3.40
2019-02-08T20:08:38.961Z,3.17
2019-02-08T20:11:09.799Z,2.83
2019-02-08T20:13:41.559Z,3.10
2019-02-08T20:16:12.363Z,3.60
2019-02-08T20:18:43.094Z,4.00
2019-02-08T20:21:14.650Z,4.40
2019-02-08T20:23:45.588Z,4.80
2019-02-08T20:26:16.357Z,4.17
2019-02-08T20:28:47.060Z,4.00
2019-02-08T20:31:18.122Z,4.13
2019-02-08T20:33:48.911Z,2.73
2019-02-08T20:36:19.651Z,3.90
2019-02-08T20:38:50.400Z,4.00
2019-02-08T20:41:21.146Z,3.77
2019-02-08T20:43:52.063Z,3.23
2019-02-08T20:46:22.830Z,3.13
2019-02-08T20:48:53.645Z,4.07
2019-02-08T20:51:24.431Z,2.37
2019-02-08T20:53:55.169Z,2.03
2019-02-08T20:56:25.927Z,3.70
2019-02-08T20:58:56.580Z,2.77
2019-02-08T21:01:28.603Z,3.80
2019-02-08T21:03:59.468Z,3.70
2019-02-08T21:06:30.259Z,4.50
2019-02-08T21:09:00.945Z,3.53
2019-02-08T21:11:33.467Z,4.03
2019-02-08T21:14:04.238Z,4.27
2019-02-08T21:16:34.966Z,3.90
2019-02-08T21:19:05.688Z,4.17
2019-02-08T21:21:36.567Z,2.87
2019-02-08T21:24:07.374Z,4.83
2019-02-08T21:26:38.166Z,3.10
2019-02-08T21:29:08.805Z,4.13
2019-02-08T21:31:39.591Z,3.70
2019-02-08T21:34:10.363Z,2.60
2019-02-08T21:36:41.141Z,4.20
2019-02-08T21:39:11.975Z,3.70
2019-02-08T21:41:42.738Z,4.07
2019-02-08T21:44:13.573Z,4.23
2019-02-08T21:46:44.350Z,3.90
2019-02-08T21:49:15.138Z,4.00
2019-02-08T21:51:45.815Z,4.90
2019-02-08T21:54:18.183Z,3.43
2019-02-08T21:56:48.985Z,3.63
2019-02-08T21:59:19.771Z,4.47
2019-02-08T22:01:50.563Z,4.33
2019-02-08T22:04:21.303Z,3.90
2019-02-08T22:06:52.130Z,3.70
2019-02-08T22:09:22.860Z,4.10
2019-02-08T22:11:55.606Z,3.77
2019-02-08T22:14:26.379Z,4.10
2019-02-08T22:16:58.649Z,3.50
2019-02-08T22:19:29.448Z,3.07
2019-02-08T22:22:00.173Z,3.80
2019-02-08T22:24:30.909Z,2.97
2019-02-08T22:27:02.566Z,3.67
2019-02-08T22:29:33.225Z,3.47
2019-02-08T22:32:04.138Z,3.70
2019-02-08T22:34:34.909Z,3.23
2019-02-08T22:37:05.691Z,3.10
2019-02-08T22:39:36.385Z,3.60
2019-02-08T22:42:07.242Z,3.37
2019-02-08T22:44:37.978Z,3.73
2019-02-08T22:47:08.723Z,2.50
2019-02-08T22:49:39.610Z,3.27
2019-02-08T22:52:10.222Z,3.93
2019-02-08T22:54:40.919Z,2.40
2019-02-08T22:57:14.059Z,3.60
2019-02-08T22:59:44.705Z,3.23
2019-02-08T23:02:15.529Z,4.37
2019-02-08T23:04:46.130Z,3.27
2019-02-08T23:07:17.742Z,3.73
2019-02-08T23:09:48.614Z,3.03
2019-02-08T23:12:19.384Z,3.80
2019-02-08T23:14:50.119Z,3.00
2019-02-08T23:17:20.751Z,4.03
2019-02-08T23:19:51.363Z,4.13
2019-02-08T23:22:22.033Z,3.53
2019-02-08T23:24:53.395Z,2.80
2019-02-08T23:27:24.145Z,4.00
2019-02-08T23:29:54.861Z,3.93
2019-02-08T23:32:25.589Z,2.77
2019-02-08T23:34:56.302Z,3.50
2019-02-08T23:37:27.066Z,3.00
2019-02-08T23:39:57.829Z,3.83
2019-02-08T23:42:28.462Z,3.63
2019-02-08T23:44:59.205Z,3.60
2019-02-08T23:47:29.898Z,3.37
2019-02-08T23:50:00.542Z,3.33
2019-02-08T23:52:31.242Z,3.80
2019-02-08T23:55:01.964Z,2.90
2019-02-08T23:57:32.644Z,3.70
